Time;durP1;ratioP1;P1;durP2;ratioP2;P2;SDS_P1;SDS_P2;PMS_P1;PMS_P2;Temp;Humidity;BMP_temperature;BMP_pressure;BME280_temperature;BME280_humidity;BME280_pressure;Samples;Min_cycle;Max_cycle;Signal;HPM_P1;HPM_P2
2024/04/16 00:00:22;;;;;;;3.50;0.60;;;;;;;5.46;72.83;97850.34;4911993;28;103547;-71
2024/04/16 00:02:50;;;;;;;1.58;0.50;;;;;;;5.52;72.57;97854.97;4926593;28;104350;-71
2024/04/16 00:05:16;;;;;;;3.67;0.55;;;;;;;5.57;72.56;97844.81;4928474;28;103854;-71
2024/04/16 00:07:42;;;;;;;1.50;0.40;;;;;;;5.53;72.84;97861.03;4928058;28;104497;-71
2024/04/16 00:10:07;;;;;;;3.25;0.65;;;;;;;5.47;72.56;97850.19;4926224;28;104242;-71
2024/04/16 00:12:40;;;;;;;2.72;0.32;;;;;;;5.48;72.91;97843.94;4927679;28;103076;-71
2024/04/16 00:15:40;;;;;;;4.00;0.70;;;;;;;5.47;72.45;97844.94;4927637;28;102919;-71
2024/04/16 00:18:09;;;;;;;1.27;0.63;;;;;;;5.73;72.09;97849.31;4908810;28;106177;-70
2024/04/16 00:20:36;;;;;;;1.58;0.40;;;;;;;5.53;72.43;97842.66;4912534;28;103944;-70
2024/04/16 00:23:02;;;;;;;2.85;0.88;;;;;;;5.57;72.32;97850.06;4913002;28;102916;-71
2024/04/16 00:25:30;;;;;;;2.80;0.55;;;;;;;5.60;72.31;97851.56;4915458;28;103185;-71
2024/04/16 00:27:56;;;;;;;1.85;0.63;;;;;;;5.57;73.27;97849.28;4924034;28;103243;-71
2024/04/16 00:30:21;;;;;;;3.95;0.77;;;;;;;5.39;73.18;97826.50;4927193;28;103149;-72
2024/04/16 00:32:47;;;;;;;3.13;1.00;;;;;;;5.54;72.42;97807.53;4915380;28;103193;-70
2024/04/16 00:35:13;;;;;;;6.70;0.88;;;;;;;5.47;72.28;97813.41;4926451;28;104233;-71
2024/04/16 00:37:38;;;;;;;3.97;0.85;;;;;;;5.49;72.04;97823.78;4915114;28;104050;-71
2024/04/16 00:40:05;;;;;;;4.65;0.82;;;;;;;5.49;71.64;97823.78;4924929;28;105498;-71
2024/04/16 00:42:30;;;;;;;4.68;0.73;;;;;;;5.44;72.43;97803.22;4912112;28;104022;-71
2024/04/16 00:44:58;;;;;;;4.82;1.08;;;;;;;5.39;72.59;97808.13;4926791;28;103689;-71
2024/04/16 00:47:24;;;;;;;3.05;0.60;;;;;;;5.41;72.69;97826.34;4926610;28;103545;-71
2024/04/16 00:49:51;;;;;;;13.15;0.82;;;;;;;5.32;73.23;97815.00;4926468;28;103084;-70
2024/04/16 00:52:19;;;;;;;4.07;0.70;;;;;;;5.31;73.53;97808.91;4929934;28;104529;-70
2024/04/16 00:54:45;;;;;;;3.72;0.98;;;;;;;5.33;73.61;97806.13;4928170;28;102803;-70
2024/04/16 00:57:11;;;;;;;3.75;0.70;;;;;;;5.37;73.59;97781.22;4925171;28;103876;-71
2024/04/16 00:59:39;;;;;;;2.80;0.70;;;;;;;5.38;73.03;97782.84;4928394;28;103780;-71
2024/04/16 01:02:05;;;;;;;2.67;0.63;;;;;;;5.52;72.82;97799.81;4910643;28;102918;-71
2024/04/16 01:04:31;;;;;;;3.95;0.70;;;;;;;5.55;72.75;97803.94;4926264;28;102767;-71
2024/04/16 01:06:57;;;;;;;4.78;0.80;;;;;;;5.45;72.84;97802.25;4914170;28;103446;-71
2024/04/16 01:09:22;;;;;;;5.32;0.70;;;;;;;5.50;73.08;97787.81;4925016;28;103209;-70
2024/04/16 01:11:50;;;;;;;7.95;0.77;;;;;;;5.31;72.96;97784.47;4916893;28;102727;-71
2024/04/16 01:14:16;;;;;;;5.38;1.02;;;;;;;5.34;73.21;97781.50;4919327;28;102707;-71
2024/04/16 01:16:42;;;;;;;3.65;0.70;;;;;;;5.55;72.37;97775.84;4926990;28;104167;-71
2024/04/16 01:19:10;;;;;;;6.13;0.98;;;;;;;5.54;72.63;97790.00;4926772;28;103134;-70
2024/04/16 01:21:36;;;;;;;5.65;1.20;;;;;;;5.46;72.85;97801.28;4928089;28;102852;-70
2024/04/16 01:24:04;;;;;;;3.70;0.90;;;;;;;5.52;72.25;97788.50;4926500;28;103422;-70
2024/04/16 01:26:30;;;;;;;6.22;0.98;;;;;;;5.53;71.93;97785.72;4923643;28;102797;-71
2024/04/16 01:28:56;;;;;;;3.17;0.82;;;;;;;5.67;71.58;97765.88;4912584;28;103213;-71
2024/04/16 01:31:22;;;;;;;6.75;0.88;;;;;;;5.47;72.31;97765.31;4926440;28;103541;-71
2024/04/16 01:33:48;;;;;;;6.32;1.13;;;;;;;5.58;71.64;97762.41;4925931;28;103054;-71
2024/04/16 01:36:14;;;;;;;4.88;0.70;;;;;;;5.52;72.12;97767.50;4924513;28;103046;-71
2024/04/16 01:38:39;;;;;;;7.05;0.88;;;;;;;5.52;72.42;97741.22;4925713;28;103053;-71
2024/04/16 01:41:05;;;;;;;4.88;0.90;;;;;;;5.53;72.16;97767.31;4925221;28;102806;-71
2024/04/16 01:43:31;;;;;;;4.53;1.25;;;;;;;5.61;72.19;97777.03;4922992;28;102694;-69
2024/04/16 01:46:00;;;;;;;5.78;0.75;;;;;;;5.71;71.59;97777.72;4922356;28;103218;-71
2024/04/16 01:48:25;;;;;;;4.07;1.00;;;;;;;5.66;71.82;97769.50;4924749;28;103371;-71
2024/04/16 01:50:51;;;;;;;6.35;0.80;;;;;;;5.58;71.96;97759.78;4927294;28;103354;-71
2024/04/16 01:53:17;;;;;;;3.17;0.90;;;;;;;5.62;71.55;97741.88;4924907;28;102842;-71
2024/04/16 01:55:45;;;;;;;3.90;0.75;;;;;;;5.52;71.77;97756.97;4931746;28;103705;-71
2024/04/16 01:58:11;;;;;;;3.75;0.82;;;;;;;5.66;72.10;97777.38;4924668;28;103699;-71
2024/04/16 02:00:36;;;;;;;2.53;0.70;;;;;;;5.61;72.07;97762.09;4928843;28;102707;-71
2024/04/16 02:03:02;;;;;;;5.32;1.00;;;;;;;5.68;71.38;97751.75;4926386;28;103831;-71
2024/04/16 02:05:28;;;;;;;4.22;1.00;;;;;;;5.63;71.36;97743.53;4936887;28;103714;-71
2024/04/16 02:07:54;;;;;;;3.13;0.88;;;;;;;5.72;71.51;97744.38;4923255;28;103447;-71
2024/04/16 02:10:21;;;;;;;7.82;1.40;;;;;;;5.52;70.98;97767.50;4888629;28;103113;-71
2024/04/16 02:12:46;;;;;;;10.10;1.27;;;;;;;5.64;71.54;97755.69;4926086;28;102685;-71
2024/04/16 02:15:12;;;;;;;3.33;0.90;;;;;;;5.64;71.52;97753.88;4925688;28;103117;-69
2024/04/16 02:17:40;;;;;;;10.75;1.40;;;;;;;5.79;71.31;97746.22;4911007;28;103580;-71
2024/04/16 02:20:07;;;;;;;4.85;1.00;;;;;;;5.52;71.58;97747.28;4925394;28;102986;-71
2024/04/16 02:22:32;;;;;;;6.60;1.05;;;;;;;5.24;72.41;97730.94;4941838;28;102707;-71
2024/04/16 02:24:58;;;;;;;4.05;0.93;;;;;;;5.51;71.73;97726.44;4928263;28;103217;-70
2024/04/16 02:27:26;;;;;;;4.25;0.90;;;;;;;5.55;71.73;97731.19;4929400;28;103116;-70
2024/04/16 02:29:57;;;;;;;4.82;0.75;;;;;;;5.59;71.23;97731.72;4925583;28;102714;-71
2024/04/16 02:32:23;;;;;;;3.72;1.10;;;;;;;5.66;70.84;97727.47;4923740;28;102791;-71
2024/04/16 02:34:49;;;;;;;11.65;1.40;;;;;;;5.57;71.23;97729.25;4927861;28;103219;-71
2024/04/16 02:37:14;;;;;;;9.25;1.23;;;;;;;5.49;71.32;97721.34;4923652;28;103240;-71
2024/04/16 02:39:40;;;;;;;2.90;1.05;;;;;;;5.58;70.81;97736.16;4927437;28;102849;-71
2024/04/16 02:42:08;;;;;;;4.97;1.17;;;;;;;5.55;71.32;97725.13;4926819;28;102822;-71
2024/04/16 02:44:36;;;;;;;3.88;1.20;;;;;;;5.62;71.46;97723.50;4915425;28;109840;-71
2024/04/16 02:47:04;;;;;;;6.63;1.13;;;;;;;5.62;72.10;97728.75;4924907;28;104358;-71
2024/04/16 02:49:30;;;;;;;4.95;1.10;;;;;;;5.62;72.97;97720.88;4924312;28;103012;-71
2024/04/16 02:51:55;;;;;;;6.55;1.25;;;;;;;5.59;72.88;97732.56;4910002;28;102702;-71
2024/04/16 02:54:21;;;;;;;6.07;1.00;;;;;;;5.41;73.24;97740.53;4910171;28;102903;-71
2024/04/16 02:56:47;;;;;;;9.65;1.58;;;;;;;5.52;73.94;97756.97;4906183;28;103805;-69
2024/04/16 02:59:15;;;;;;;6.95;1.42;;;;;;;5.36;75.14;97755.94;4924229;28;102928;-71
2024/04/16 03:01:40;;;;;;;5.90;0.95;;;;;;;5.32;75.33;97749.34;4931460;28;103512;-72
2024/04/16 03:04:06;;;;;;;5.32;1.02;;;;;;;4.89;76.38;97748.50;4921609;28;103189;-71
2024/04/16 03:06:32;;;;;;;5.03;0.95;;;;;;;5.22;76.29;97748.66;4924838;28;107715;-71
2024/04/16 03:08:59;;;;;;;7.53;1.02;;;;;;;5.29;75.93;97747.03;4912383;28;103206;-74
2024/04/16 03:11:24;;;;;;;7.05;1.25;;;;;;;5.14;76.23;97739.75;4922706;28;103735;-73
2024/04/16 03:13:50;;;;;;;7.10;1.38;;;;;;;5.11;76.03;97734.00;4924920;28;103174;-74
2024/04/16 03:16:16;;;;;;;7.40;1.30;;;;;;;4.94;76.04;97748.84;4925125;28;103540;-73
2024/04/16 03:18:45;;;;;;;8.73;1.45;;;;;;;4.94;76.05;97744.41;4923939;28;103296;-74
2024/04/16 03:21:10;;;;;;;3.70;1.10;;;;;;;4.67;76.22;97742.78;4906927;28;103641;-72
2024/04/16 03:23:36;;;;;;;6.43;1.40;;;;;;;4.80;75.92;97751.03;4906853;28;103244;-74
2024/04/16 03:26:05;;;;;;;9.30;1.48;;;;;;;4.82;76.05;97756.13;4924875;28;103636;-73
2024/04/16 03:28:31;;;;;;;9.27;1.42;;;;;;;4.83;76.11;97752.53;4910965;28;103576;-74
2024/04/16 03:30:57;;;;;;;8.55;1.90;;;;;;;4.86;75.48;97751.41;4914395;28;103150;-73
2024/04/16 03:33:22;;;;;;;7.65;1.38;;;;;;;4.93;74.32;97748.00;4924446;28;103193;-74
2024/04/16 03:35:56;;;;;;;8.63;1.70;;;;;;;4.86;73.54;97752.25;4921467;28;103168;-74
2024/04/16 03:38:26;;;;;;;5.63;1.35;;;;;;;5.04;73.61;97761.84;4925292;28;103203;-74
2024/04/16 03:40:57;;;;;;;6.10;1.20;;;;;;;4.98;72.80;97756.25;4916013;28;102662;-73
2024/04/16 03:43:26;;;;;;;9.68;1.60;;;;;;;4.99;72.77;97759.69;4925975;28;103132;-79
2024/04/16 03:45:56;;;;;;;6.35;1.55;;;;;;;4.93;73.03;97758.50;4923967;28;103728;-74
2024/04/16 03:48:23;;;;;;;5.72;1.20;;;;;;;5.17;72.43;97769.31;4915403;28;102867;-74
2024/04/16 03:50:49;;;;;;;7.20;1.45;;;;;;;5.12;72.61;97762.72;4923417;28;102656;-72
2024/04/16 03:53:15;;;;;;;10.45;2.45;;;;;;;5.17;72.78;97774.56;4920711;28;103230;-74
2024/04/16 03:55:44;;;;;;;9.15;1.35;;;;;;;5.06;72.48;97771.22;4928039;28;103779;-72
2024/04/16 03:58:11;;;;;;;6.32;1.70;;;;;;;5.03;72.37;97773.31;4924005;28;103132;-74
2024/04/16 04:03:23;;;;;;;9.95;1.73;;;;;;;4.91;72.16;97772.75;4912339;28;106115;-73
2024/04/16 04:05:49;;;;;;;9.70;1.92;;;;;;;4.96;71.62;97770.50;4924465;28;103802;-76
2024/04/16 04:08:15;;;;;;;7.40;1.52;;;;;;;5.10;71.05;97780.41;4922010;28;102745;-76
2024/04/16 04:10:41;;;;;;;9.40;1.67;;;;;;;4.99;71.25;97775.41;4923861;28;102745;-76
2024/04/16 04:13:07;;;;;;;11.98;2.40;;;;;;;5.00;70.67;97771.81;4922164;28;103650;-73
2024/04/16 04:15:33;;;;;;;16.08;1.77;;;;;;;4.91;70.83;97775.38;4921282;28;103218;-74
2024/04/16 04:17:59;;;;;;;5.88;1.40;;;;;;;5.08;70.41;97771.91;4928313;28;102937;-73
2024/04/16 04:20:24;;;;;;;6.35;1.30;;;;;;;5.03;70.59;97768.91;4928643;28;102948;-74
2024/04/16 04:22:50;;;;;;;7.57;1.25;;;;;;;5.06;70.37;97779.09;4926319;28;103654;-72
2024/04/16 04:25:16;;;;;;;10.20;1.77;;;;;;;5.03;70.90;97775.94;4914803;28;103399;-72
2024/04/16 04:27:42;;;;;;;8.90;1.75;;;;;;;4.89;70.97;97769.47;4930742;28;102860;-73
2024/04/16 04:30:08;;;;;;;11.82;1.90;;;;;;;4.90;70.59;97774.56;4927558;28;102714;-73
2024/04/16 04:32:34;;;;;;;9.95;1.70;;;;;;;4.94;70.00;97765.41;4913188;28;103195;-75
2024/04/16 04:35:06;;;;;;;8.75;1.98;;;;;;;4.78;70.37;97767.91;4931178;28;103111;-81
2024/04/16 04:37:32;;;;;;;8.60;1.23;;;;;;;4.97;70.63;97769.53;4926698;28;102624;-76
2024/04/16 04:39:58;;;;;;;9.23;2.15;;;;;;;4.73;71.36;97773.66;4932844;28;102807;-78
2024/04/16 04:42:25;;;;;;;7.35;1.40;;;;;;;4.80;71.40;97772.03;4910613;28;103172;-79
2024/04/16 04:44:56;;;;;;;9.48;1.75;;;;;;;5.02;70.74;97772.50;4928678;28;103968;-86
2024/04/16 04:47:22;;;;;;;11.27;2.58;;;;;;;4.80;71.02;97769.41;4925556;28;103838;-75
2024/04/16 04:49:48;;;;;;;6.72;1.25;;;;;;;4.98;71.08;97772.00;4926513;28;102987;-75
2024/04/16 04:52:13;;;;;;;6.80;1.45;;;;;;;4.77;71.62;97771.53;4926349;28;102962;-74
2024/04/16 04:54:39;;;;;;;11.93;1.60;;;;;;;4.91;71.58;97780.63;4927713;28;103086;-75
2024/04/16 04:57:05;;;;;;;4.53;1.45;;;;;;;4.99;71.00;97783.28;4930901;28;103120;-74
2024/04/16 04:59:34;;;;;;;8.82;1.30;;;;;;;5.03;71.17;97787.28;4928200;28;102723;-73
2024/04/16 05:02:02;;;;;;;6.35;1.33;;;;;;;5.22;70.62;97788.84;4912153;28;103564;-72
2024/04/16 05:04:28;;;;;;;11.45;1.70;;;;;;;5.29;70.03;97783.78;4929140;28;103183;-75
2024/04/16 05:06:54;;;;;;;9.65;1.85;;;;;;;5.15;70.67;97791.28;4928145;28;102687;-76
2024/04/16 05:09:20;;;;;;;7.78;1.40;;;;;;;5.11;71.00;97792.56;4924590;28;103053;-79
2024/04/16 05:11:45;;;;;;;11.70;1.80;;;;;;;5.38;70.49;97795.97;4929599;28;103865;-78
2024/04/16 05:14:11;;;;;;;8.23;2.05;;;;;;;5.48;70.10;97794.06;4924335;28;103717;-75
2024/04/16 05:16:37;;;;;;;14.93;2.25;;;;;;;5.35;70.22;97798.91;4929441;28;102841;-76
2024/04/16 05:19:03;;;;;;;11.70;1.95;;;;;;;5.52;69.88;97806.88;4930191;28;102771;-76
2024/04/16 05:21:29;;;;;;;9.73;2.00;;;;;;;5.42;70.39;97809.63;4911059;28;105700;-77
2024/04/16 05:23:56;;;;;;;7.38;1.40;;;;;;;5.58;70.01;97801.81;4931548;28;105660;-72
2024/04/16 05:26:22;;;;;;;12.45;1.98;;;;;;;5.63;70.08;97806.59;4919603;28;102735;-72
2024/04/16 05:28:49;;;;;;;9.45;1.60;;;;;;;5.74;69.70;97803.69;4924696;28;103047;-71
2024/04/16 05:31:15;;;;;;;12.73;3.03;;;;;;;5.66;70.22;97801.03;4926202;28;104827;-71
2024/04/16 05:33:41;;;;;;;12.38;1.85;;;;;;;5.71;70.05;97797.91;4924814;28;103097;-71
2024/04/16 05:36:08;;;;;;;10.10;1.48;;;;;;;5.68;69.82;97804.31;4926495;28;103270;-74
2024/04/16 05:38:35;;;;;;;12.05;2.03;;;;;;;5.78;70.01;97805.00;4910461;28;102689;-75
2024/04/16 05:41:02;;;;;;;6.90;1.45;;;;;;;5.98;68.89;97810.81;4925284;28;103286;-71
2024/04/16 05:43:28;;;;;;;5.28;1.40;;;;;;;6.14;68.87;97819.75;4927917;28;103684;-70
2024/04/16 05:45:53;;;;;;;18.58;2.30;;;;;;;5.82;69.58;97816.84;4918086;28;102940;-72
2024/04/16 05:48:19;;;;;;;9.27;1.63;;;;;;;5.79;69.89;97819.78;4925488;28;102718;-73
2024/04/16 05:50:47;;;;;;;11.23;1.55;;;;;;;5.92;69.58;97826.38;4923907;28;103616;-74
2024/04/16 05:53:15;;;;;;;7.95;1.52;;;;;;;6.07;68.63;97829.28;4923417;28;103383;-73
2024/04/16 05:55:40;;;;;;;10.00;2.33;;;;;;;6.23;68.92;97833.72;4907318;28;102713;-72
2024/04/16 05:58:10;;;;;;;8.15;1.77;;;;;;;6.15;68.93;97837.16;4922421;28;103143;-72
2024/04/16 06:00:39;;;;;;;8.63;1.73;;;;;;;6.28;68.65;97840.13;4921198;28;103279;-74
2024/04/16 06:03:04;;;;;;;7.88;1.48;;;;;;;6.05;67.95;97842.56;4920081;28;104005;-71
2024/04/16 06:05:30;;;;;;;9.75;1.95;;;;;;;6.19;68.42;97843.75;4912770;28;109399;-73
2024/04/16 06:07:58;;;;;;;8.27;1.60;;;;;;;6.25;67.41;97837.00;4924739;28;103032;-75
2024/04/16 06:10:24;;;;;;;8.25;1.92;;;;;;;6.26;66.91;97828.13;4923729;28;103127;-74
2024/04/16 06:12:49;;;;;;;14.07;1.90;;;;;;;6.26;66.87;97828.13;4921595;28;103524;-74
2024/04/16 06:15:15;;;;;;;11.20;2.50;;;;;;;6.12;66.25;97833.06;4921465;28;102720;-74
2024/04/16 06:17:41;;;;;;;6.22;1.65;;;;;;;6.45;65.66;97816.50;4926259;28;104528;-74
2024/04/16 06:20:10;;;;;;;9.20;1.55;;;;;;;6.52;64.68;97825.38;4924488;28;103731;-74
2024/04/16 06:22:39;;;;;;;16.25;2.65;;;;;;;6.83;65.43;97816.00;4924540;28;103158;-75
2024/04/16 06:25:06;;;;;;;10.98;2.08;;;;;;;6.89;65.25;97815.34;4896776;28;103976;-74
2024/04/16 06:27:32;;;;;;;11.52;2.95;;;;;;;6.98;64.48;97809.06;4930264;28;102948;-71
2024/04/16 06:29:58;;;;;;;11.80;2.03;;;;;;;7.30;63.67;97802.09;4926495;28;103315;-73
2024/04/16 06:32:24;;;;;;;11.20;1.50;;;;;;;7.38;63.65;97804.69;4924061;28;103229;-72
2024/04/16 06:34:49;;;;;;;10.98;1.85;;;;;;;7.43;63.87;97799.75;4926845;28;103052;-74
2024/04/16 06:37:15;;;;;;;8.52;1.80;;;;;;;7.47;62.77;97790.50;4923977;28;103148;-73
2024/04/16 06:39:41;;;;;;;8.55;1.50;;;;;;;7.32;62.04;97796.66;4922151;28;103069;-72
2024/04/16 06:42:07;;;;;;;9.27;1.67;;;;;;;7.10;61.63;97794.56;4924706;28;104348;-74
2024/04/16 06:44:35;;;;;;;13.57;2.28;;;;;;;7.24;62.04;97792.22;4923918;28;102842;-74
2024/04/16 06:47:01;;;;;;;8.88;1.70;;;;;;;7.19;61.64;97789.28;4916943;28;102861;-74
2024/04/16 06:49:26;;;;;;;6.63;1.20;;;;;;;7.51;60.70;97784.91;4923183;28;103682;-74
2024/04/16 06:51:52;;;;;;;9.88;1.58;;;;;;;7.81;60.30;97791.19;4919479;28;103818;-73
2024/04/16 06:54:18;;;;;;;5.93;1.55;;;;;;;7.97;60.88;97785.00;4925210;28;103197;-72
2024/04/16 06:56:46;;;;;;;8.73;1.35;;;;;;;7.97;59.31;97780.53;4927641;28;102994;-73
2024/04/16 06:59:14;;;;;;;10.30;1.73;;;;;;;7.77;58.49;97785.44;4938453;28;103518;-74
2024/04/16 07:01:40;;;;;;;8.73;1.65;;;;;;;7.91;57.68;97780.41;4923116;28;102876;-71
2024/04/16 07:04:10;;;;;;;9.70;1.27;;;;;;;8.06;56.58;97791.88;4922323;28;103043;-73
2024/04/16 07:06:38;;;;;;;8.35;1.23;;;;;;;7.76;55.85;97783.78;4887372;28;102795;-73
2024/04/16 07:09:04;;;;;;;8.65;1.90;;;;;;;7.96;55.77;97775.44;4918368;28;104236;-74
2024/04/16 07:11:32;;;;;;;8.10;1.85;;;;;;;7.82;56.61;97776.19;4922106;28;106089;-73
2024/04/16 07:13:57;;;;;;;9.60;1.88;;;;;;;8.11;55.95;97776.34;4922280;28;103219;-75
2024/04/16 07:16:24;;;;;;;5.88;1.30;;;;;;;8.35;55.99;97776.34;4924192;28;103091;-73
2024/04/16 07:18:53;;;;;;;6.53;1.17;;;;;;;8.35;55.39;97774.53;4908341;28;103200;-73
2024/04/16 07:21:19;;;;;;;7.75;1.55;;;;;;;8.34;52.91;97780.78;4905914;28;104025;-74
2024/04/16 07:23:45;;;;;;;8.85;1.52;;;;;;;8.24;52.22;97782.84;4925425;28;102975;-73
2024/04/16 07:26:13;;;;;;;6.05;1.45;;;;;;;8.11;50.58;97786.91;4911892;28;104091;-70
2024/04/16 07:28:39;;;;;;;7.65;1.55;;;;;;;8.58;51.58;97771.91;4921884;28;103846;-74
2024/04/16 07:31:10;;;;;;;10.93;1.73;;;;;;;8.36;51.67;97778.81;4920691;28;103647;-73
2024/04/16 07:33:36;;;;;;;9.57;1.42;;;;;;;8.22;51.83;97776.94;4923118;28;103018;-74
2024/04/16 07:36:08;;;;;;;8.95;1.20;;;;;;;8.24;50.41;97769.66;4924930;28;103033;-71
2024/04/16 07:38:38;;;;;;;6.18;1.35;;;;;;;8.13;50.24;97769.09;4909103;28;107860;-74
2024/04/16 07:41:06;;;;;;;13.05;2.58;;;;;;;8.27;50.08;97770.13;4923360;28;104559;-73
2024/04/16 07:43:32;;;;;;;9.43;1.27;;;;;;;8.95;48.98;97766.78;4922134;28;102663;-73
2024/04/16 07:45:58;;;;;;;4.72;0.90;;;;;;;9.07;47.20;97743.38;4925923;28;102736;-72
2024/04/16 07:48:26;;;;;;;6.18;1.05;;;;;;;9.31;45.89;97755.47;4904890;28;104253;-74
2024/04/16 07:50:52;;;;;;;8.25;1.00;;;;;;;9.88;46.18;97750.50;4921168;28;103307;-74
2024/04/16 07:53:20;;;;;;;4.28;0.90;;;;;;;9.97;44.45;97738.78;4924807;28;103254;-72
2024/04/16 07:55:46;;;;;;;6.68;1.23;;;;;;;9.57;45.58;97730.41;4943741;28;103218;-71
2024/04/16 07:58:12;;;;;;;5.00;1.20;;;;;;;9.57;44.18;97733.03;4943111;28;103140;-72
2024/04/16 08:00:39;;;;;;;7.25;1.08;;;;;;;9.43;44.10;97732.06;4925544;28;103174;-73
2024/04/16 08:03:07;;;;;;;5.15;1.13;;;;;;;9.62;44.85;97741.25;4927377;28;103128;-70
2024/04/16 08:05:40;;;;;;;5.32;1.27;;;;;;;10.32;43.79;97727.50;4925566;28;103422;-72
2024/04/16 08:08:06;;;;;;;4.20;1.10;;;;;;;10.30;44.15;97743.56;4906395;28;103441;-70
2024/04/16 08:10:35;;;;;;;6.15;1.40;;;;;;;10.00;45.66;97732.31;4925871;28;103343;-73
2024/04/16 08:13:00;;;;;;;5.65;1.20;;;;;;;9.71;46.48;97729.56;4924355;28;103218;-72
2024/04/16 08:15:26;;;;;;;7.28;1.38;;;;;;;9.99;45.66;97715.59;4908580;28;109846;-72
2024/04/16 08:17:54;;;;;;;5.38;0.95;;;;;;;9.77;46.13;97712.94;4924903;28;103797;-72
2024/04/16 08:20:20;;;;;;;7.40;1.10;;;;;;;9.74;46.32;97729.16;4922294;28;103436;-71
2024/04/16 08:22:45;;;;;;;3.38;1.02;;;;;;;9.64;46.03;97728.63;4929338;28;102757;-72
2024/04/16 08:25:11;;;;;;;4.32;1.30;;;;;;;9.12;46.72;97736.53;4923167;28;103611;-72
2024/04/16 08:27:38;;;;;;;3.95;1.02;;;;;;;9.34;47.76;97733.16;4926250;28;103150;-71
2024/04/16 08:30:04;;;;;;;6.78;1.08;;;;;;;9.84;46.48;97733.34;4918083;28;102804;-71
2024/04/16 08:32:30;;;;;;;2.90;0.90;;;;;;;10.23;47.19;97716.22;4942507;28;103295;-72
2024/04/16 08:34:58;;;;;;;4.95;1.10;;;;;;;10.28;47.41;97727.88;4927814;28;102910;-72
2024/04/16 08:37:30;;;;;;;6.03;1.20;;;;;;;9.59;47.21;97729.22;4924828;28;104961;-72
2024/04/16 08:39:55;;;;;;;4.45;0.88;;;;;;;9.54;46.81;97728.13;4924752;28;103230;-74
2024/04/16 08:42:22;;;;;;;6.22;1.20;;;;;;;9.53;47.86;97731.78;4926076;28;103109;-69
2024/04/16 08:44:53;;;;;;;5.57;1.10;;;;;;;9.60;47.51;97727.38;4925957;28;103287;-73
2024/04/16 08:47:22;;;;;;;7.20;1.10;;;;;;;9.92;47.62;97736.69;4922985;28;103271;-71
2024/04/16 08:49:52;;;;;;;6.38;1.20;;;;;;;9.93;45.21;97718.97;4921021;28;103268;-73
2024/04/16 08:52:19;;;;;;;9.55;1.20;;;;;;;9.60;46.04;97714.16;4910700;28;103399;-73
2024/04/16 08:54:47;;;;;;;4.93;1.40;;;;;;;9.80;46.72;97722.34;4925778;28;102790;-71
2024/04/16 08:57:16;;;;;;;4.07;1.20;;;;;;;10.08;46.87;97706.53;4923035;28;107227;-72
2024/04/16 08:59:42;;;;;;;4.05;0.80;;;;;;;10.80;45.04;97711.00;4911273;28;103107;-72
2024/04/16 09:02:07;;;;;;;5.03;1.08;;;;;;;10.28;46.11;97708.53;4941188;28;102749;-73
2024/04/16 09:04:36;;;;;;;5.10;1.00;;;;;;;10.59;46.11;97694.16;4942837;28;102929;-72
2024/04/16 09:07:06;;;;;;;7.70;1.10;;;;;;;11.59;44.72;97701.78;4907396;28;105356;-70
2024/04/16 09:09:33;;;;;;;12.05;1.02;;;;;;;11.93;42.85;97695.56;4918361;28;107707;-71
2024/04/16 09:12:03;;;;;;;7.15;1.25;;;;;;;11.91;42.96;97697.59;4927226;28;103470;-73
2024/04/16 09:14:30;;;;;;;6.95;1.27;;;;;;;11.66;44.88;97688.56;4926258;28;102862;-73
2024/04/16 09:16:55;;;;;;;6.72;1.17;;;;;;;11.49;44.41;97693.41;4910551;28;105449;-73
2024/04/16 09:19:26;;;;;;;7.28;1.38;;;;;;;11.74;43.87;97686.53;4925771;28;103356;-72
2024/04/16 09:21:58;;;;;;;4.40;0.73;;;;;;;11.88;42.71;97702.47;4940113;28;103145;-73
2024/04/16 09:24:23;;;;;;;4.70;1.10;;;;;;;12.11;42.68;97692.34;4921819;28;103075;-72
2024/04/16 09:26:51;;;;;;;9.32;1.05;;;;;;;10.89;43.34;97705.34;4926008;28;104191;-73
2024/04/16 09:29:25;;;;;;;5.65;0.93;;;;;;;11.24;43.70;97693.91;4914987;28;103212;-73
2024/04/16 09:32:00;;;;;;;4.00;0.98;;;;;;;11.00;44.57;97696.03;4924638;28;103310;-72
2024/04/16 09:34:26;;;;;;;6.03;1.55;;;;;;;10.33;45.13;97718.56;4926050;28;102819;-73
2024/04/16 09:36:56;;;;;;;3.33;0.85;;;;;;;11.53;43.43;97698.13;4927316;28;103194;-72
2024/04/16 09:39:23;;;;;;;5.78;1.17;;;;;;;11.25;44.31;97692.91;4908909;28;103736;-73
2024/04/16 09:41:53;;;;;;;3.25;0.70;;;;;;;11.00;44.22;97688.06;4925132;28;102961;-72
2024/04/16 09:44:19;;;;;;;3.58;1.08;;;;;;;11.12;44.17;97691.00;4926866;28;103053;-73
2024/04/16 09:46:46;;;;;;;5.68;1.23;;;;;;;11.14;44.54;97696.94;4925616;28;103156;-73
2024/04/16 09:49:14;;;;;;;4.43;1.17;;;;;;;10.95;44.32;97685.19;4910730;28;103098;-72
2024/04/16 09:51:40;;;;;;;5.28;0.82;;;;;;;10.65;45.08;97693.38;4899301;28;102803;-70
2024/04/16 09:54:06;;;;;;;8.88;1.08;;;;;;;10.59;46.39;97699.44;4925809;28;103165;-69
2024/04/16 09:56:37;;;;;;;4.78;1.10;;;;;;;10.32;47.43;97701.84;4920289;28;105471;-71
2024/04/16 09:59:07;;;;;;;6.35;0.70;;;;;;;10.49;46.92;97696.31;4924723;28;103134;-72
2024/04/16 10:01:33;;;;;;;15.50;1.35;;;;;;;10.30;46.64;97695.94;4920761;28;103422;-70
2024/04/16 10:03:59;;;;;;;4.55;0.70;;;;;;;10.19;47.46;97699.09;4926892;28;104152;-71
2024/04/16 10:06:25;;;;;;;5.15;0.80;;;;;;;10.61;47.67;97690.31;4920034;28;103821;-72
2024/04/16 10:08:54;;;;;;;7.93;0.98;;;;;;;10.64;47.07;97686.44;4925527;28;102951;-73
2024/04/16 10:11:21;;;;;;;3.28;0.70;;;;;;;10.57;46.52;97686.41;4914624;28;102972;-70
2024/04/16 10:13:51;;;;;;;4.60;1.10;;;;;;;10.35;47.68;97692.69;4923851;28;102907;-74
2024/04/16 10:16:20;;;;;;;1.83;0.85;;;;;;;10.29;47.99;97694.28;4925251;28;103683;-73
2024/04/16 10:18:55;;;;;;;4.18;0.65;;;;;;;10.23;47.82;97697.69;4940038;28;103239;-73
2024/04/16 10:21:23;;;;;;;5.97;0.80;;;;;;;10.27;48.69;97696.31;4926330;28;103083;-72
2024/04/16 10:24:01;;;;;;;2.85;0.52;;;;;;;10.47;48.76;97709.75;4911874;28;103607;-75
2024/04/16 10:26:29;;;;;;;6.75;0.82;;;;;;;9.92;48.70;97690.91;4926556;28;103088;-73
2024/04/16 10:28:56;;;;;;;3.58;0.88;;;;;;;9.93;48.97;97697.81;4923580;28;103460;-72
2024/04/16 10:31:29;;;;;;;4.38;0.80;;;;;;;9.72;50.52;97690.69;4900254;28;103827;-73
2024/04/16 10:34:01;;;;;;;4.60;0.70;;;;;;;9.48;51.83;97702.44;4895118;28;102697;-73
2024/04/16 10:36:28;;;;;;;3.67;0.60;;;;;;;9.35;52.77;97709.19;4941549;28;103116;-72
2024/04/16 10:38:55;;;;;;;3.33;1.00;;;;;;;9.09;55.70;97699.94;4925039;28;103172;-75
2024/04/16 10:41:28;;;;;;;2.38;0.63;;;;;;;8.95;55.92;97708.69;4926195;28;103047;-72
2024/04/16 10:43:57;;;;;;;2.78;0.60;;;;;;;9.24;55.97;97717.59;4922249;28;103083;-72
2024/04/16 10:46:24;;;;;;;6.47;0.60;;;;;;;9.26;55.11;97721.69;4936430;28;103556;-71
2024/04/16 10:48:50;;;;;;;3.38;0.80;;;;;;;9.39;54.52;97707.84;4907325;28;103889;-76
2024/04/16 10:51:16;;;;;;;2.85;0.68;;;;;;;9.51;53.78;97697.59;4915537;28;102844;-74
2024/04/16 10:53:42;;;;;;;6.30;1.08;;;;;;;9.49;52.32;97689.03;4925919;28;102785;-76
2024/04/16 10:56:13;;;;;;;3.45;0.80;;;;;;;10.01;52.41;97676.56;4911412;28;103834;-72
2024/04/16 10:58:44;;;;;;;2.92;0.77;;;;;;;10.03;52.73;97655.19;4925294;28;103660;-74
2024/04/16 11:01:12;;;;;;;6.38;0.82;;;;;;;10.37;51.53;97667.72;4906713;28;103606;-75
2024/04/16 11:03:38;;;;;;;5.80;0.93;;;;;;;10.33;50.79;97662.97;4923346;28;104880;-76
2024/04/16 11:06:05;;;;;;;3.08;0.80;;;;;;;10.21;51.14;97666.13;4910576;28;105418;-74
2024/04/16 11:08:32;;;;;;;4.55;0.77;;;;;;;10.37;51.75;97666.91;4920953;28;105348;-75
2024/04/16 11:10:57;;;;;;;5.28;0.90;;;;;;;10.74;50.76;97660.44;4916669;28;102850;-72
2024/04/16 11:13:27;;;;;;;1.98;0.60;;;;;;;10.39;50.17;97678.94;4926133;28;103558;-75
2024/04/16 11:15:52;;;;;;;4.90;0.65;;;;;;;10.34;50.12;97681.31;4938688;28;103996;-71
2024/04/16 11:18:18;;;;;;;2.60;0.63;;;;;;;10.21;50.00;97679.38;4924657;28;103150;-72
2024/04/16 11:20:44;;;;;;;3.38;0.52;;;;;;;10.97;49.73;97671.78;4907229;28;103189;-72
2024/04/16 11:23:10;;;;;;;4.13;0.60;;;;;;;11.00;49.37;97674.84;4922456;28;103090;-71
2024/04/16 11:25:44;;;;;;;2.88;0.50;;;;;;;11.03;48.70;97673.63;4923389;28;105102;-73
2024/04/16 11:28:09;;;;;;;3.15;0.32;;;;;;;10.92;50.48;97681.09;4924071;28;103937;-72
2024/04/16 11:30:52;;;;;;;1.25;0.60;;;;;;;10.97;49.62;97685.84;4918614;28;103838;-74
2024/04/16 11:33:17;;;;;;;2.65;0.57;;;;;;;10.45;50.42;97672.88;4911114;28;103362;-71